Ana Sayfa
METAR-TAF:

METAR-TAF

Havaalanları :

Wallops Flight Facility

Wallops Island, Virginia, Amerika Birleşik Devletleri

Enlem: 37-56-26N, Boylam: 075-27-47W, yükseklik: 12 m

Güncel hava durumu gözlemi

Rapor saat 23:54 UTC de 47 dakika önce yapıldı.
Rüzgar batı/kuzeybatıdan 4 kt
Sıcaklık 14°C
Nem 88%
Basınç 1017 hPa
Görüş mesafesi: 16.1 km
Açık gökyüzü

METAR: KWAL 232354Z AUTO 29004KT 10SM CLR 14/12 A3003 RMK AO2 SLP166 T01440117 10217 20144 53018

Saat: 20:41 (00:41 UTC)


TAF: eksik

4.000'den fazla havaalanı için hava durumu gözlemleri ve tahminleri (METAR ve TAF raporları).

Kullanılabilir istasyonlar harita üzerinde sarı ve kırmızı noktalarla gösterilir.

İstasyonun adını görmek için fareyi noktanın üzerinde gezdirin.

Sonrasında hava gözlem ve tahminlerini görmek için tıklayın.

Haritayı değiştirmek için: yaklaştırmak için siyah artı işaretli yeşil düğmeye ve uzaklaştırmak için de eksi işaretli düğmeye hızla tıklayın; bitişik haritalar için yeşil okları kullanın.


METAR-TAF: